Time;durP1;ratioP1;P1;durP2;ratioP2;P2;SDS_P1;SDS_P2;PMS_P1;PMS_P2;Temp;Humidity;BMP_temperature;BMP_pressure;BME280_temperature;BME280_humidity;BME280_pressure;Samples;Min_cycle;Max_cycle;Signal;HPM_P1;HPM_P2
2024/02/15 00:02:23;;;;;;;28.70;21.88;;;;;;;;;;5011682;28;20095;-62
2024/02/15 00:04:49;;;;;;;27.00;21.98;;;;;;;;;;4996269;28;20034;-63
2024/02/15 00:07:15;;;;;;;31.05;21.42;;;;;;;;;;5011180;28;20033;-62
2024/02/15 00:09:41;;;;;;;28.00;21.70;;;;;;;;;;5011090;28;20040;-63
2024/02/15 00:12:07;;;;;;;30.63;22.35;;;;;;;;;;5011115;28;20476;-62
2024/02/15 00:14:33;;;;;;;31.05;21.70;;;;;;;;;;5010811;28;20030;-63
2024/02/15 00:16:59;;;;;;;28.67;22.05;;;;;;;;;;5010337;28;20409;-62
2024/02/15 00:19:25;;;;;;;30.88;22.35;;;;;;;;;;5004229;28;20068;-62
2024/02/15 00:21:52;;;;;;;32.70;22.17;;;;;;;;;;5010939;28;20041;-63
2024/02/15 00:24:18;;;;;;;29.48;20.67;;;;;;;;;;5008291;28;20045;-62
2024/02/15 00:26:44;;;;;;;33.15;21.15;;;;;;;;;;5008151;28;20030;-62
2024/02/15 00:29:10;;;;;;;28.10;21.27;;;;;;;;;;5011694;28;20026;-62
2024/02/15 00:31:38;;;;;;;28.35;22.00;;;;;;;;;;5008746;28;20061;-62
2024/02/15 00:34:04;;;;;;;28.15;21.58;;;;;;;;;;5011008;28;20052;-62
2024/02/15 00:36:30;;;;;;;30.70;21.85;;;;;;;;;;5000061;28;20512;-62
2024/02/15 00:38:56;;;;;;;29.27;21.48;;;;;;;;;;5010579;28;20034;-63
2024/02/15 00:41:22;;;;;;;29.38;21.40;;;;;;;;;;5011763;28;20136;-62
2024/02/15 00:43:48;;;;;;;30.35;21.38;;;;;;;;;;5011245;28;20030;-62
2024/02/15 00:46:16;;;;;;;29.67;21.55;;;;;;;;;;5008110;28;20040;-62
2024/02/15 00:48:42;;;;;;;29.13;22.05;;;;;;;;;;5011783;28;20068;-62
2024/02/15 00:51:08;;;;;;;25.63;19.95;;;;;;;;;;4996972;28;20026;-62
2024/02/15 00:53:34;;;;;;;33.25;21.52;;;;;;;;;;4998720;28;20034;-62
2024/02/15 00:56:00;;;;;;;31.02;21.48;;;;;;;;;;5005125;28;20096;-63
2024/02/15 00:58:27;;;;;;;32.10;21.83;;;;;;;;;;5008442;28;20030;-62
2024/02/15 01:00:56;;;;;;;31.83;21.17;;;;;;;;;;4998120;28;20042;-62
2024/02/15 01:03:22;;;;;;;30.85;22.58;;;;;;;;;;5013132;28;20538;-62
2024/02/15 01:05:48;;;;;;;31.02;22.60;;;;;;;;;;5009346;28;20026;-62
2024/02/15 01:08:14;;;;;;;33.58;23.83;;;;;;;;;;5014599;28;20026;-62
2024/02/15 01:10:40;;;;;;;31.70;23.35;;;;;;;;;;5014401;28;20097;-62
2024/02/15 01:13:07;;;;;;;32.65;23.75;;;;;;;;;;4998817;28;20181;-62
2024/02/15 01:15:33;;;;;;;26.98;22.65;;;;;;;;;;5000820;28;20375;-62
2024/02/15 01:17:59;;;;;;;31.15;23.33;;;;;;;;;;5003367;28;20060;-62
2024/02/15 01:20:24;;;;;;;35.40;25.05;;;;;;;;;;5014184;28;20125;-62
2024/02/15 01:22:51;;;;;;;34.92;24.10;;;;;;;;;;5006543;28;20058;-62
2024/02/15 01:25:17;;;;;;;33.90;25.77;;;;;;;;;;4996035;28;20038;-62
2024/02/15 01:27:43;;;;;;;35.92;26.23;;;;;;;;;;5010306;28;20025;-61
2024/02/15 01:30:10;;;;;;;33.45;24.52;;;;;;;;;;5007906;28;20041;-62
2024/02/15 01:32:36;;;;;;;39.25;26.55;;;;;;;;;;5007990;28;20149;-62
2024/02/15 01:35:02;;;;;;;36.15;25.63;;;;;;;;;;5011912;28;20022;-62
2024/02/15 01:37:29;;;;;;;40.58;26.42;;;;;;;;;;5001561;28;20026;-61
2024/02/15 01:39:55;;;;;;;36.30;25.58;;;;;;;;;;5013960;28;20030;-62
2024/02/15 01:42:21;;;;;;;34.88;24.67;;;;;;;;;;5011181;28;20026;-62
2024/02/15 01:44:49;;;;;;;35.15;24.52;;;;;;;;;;5010087;28;20117;-62
2024/02/15 01:47:17;;;;;;;35.53;26.55;;;;;;;;;;5013071;28;20022;-62
2024/02/15 01:49:43;;;;;;;37.97;25.80;;;;;;;;;;5006291;28;20034;-62
2024/02/15 01:52:10;;;;;;;33.97;25.35;;;;;;;;;;5010724;28;20505;-62
2024/02/15 01:54:38;;;;;;;37.85;25.48;;;;;;;;;;5011331;28;20499;-61
2024/02/15 01:57:04;;;;;;;36.28;25.35;;;;;;;;;;5002109;28;20080;-62
2024/02/15 01:59:31;;;;;;;37.30;26.45;;;;;;;;;;5013000;28;20092;-63
2024/02/15 02:01:57;;;;;;;35.35;24.33;;;;;;;;;;5012165;28;20022;-62
2024/02/15 02:04:23;;;;;;;31.20;24.38;;;;;;;;;;5002984;28;20384;-62
2024/02/15 02:06:49;;;;;;;36.40;25.42;;;;;;;;;;5005189;28;20026;-62
2024/02/15 02:09:27;;;;;;;35.08;24.88;;;;;;;;;;5012880;28;20030;-62
2024/02/15 02:11:53;;;;;;;36.85;25.15;;;;;;;;;;5003445;28;20041;-62
2024/02/15 02:14:20;;;;;;;33.35;24.80;;;;;;;;;;5006362;28;20034;-62
2024/02/15 02:16:46;;;;;;;34.35;24.77;;;;;;;;;;5007661;28;20030;-62
2024/02/15 02:19:12;;;;;;;40.47;25.40;;;;;;;;;;5012354;28;20388;-62
2024/02/15 02:21:39;;;;;;;34.90;26.88;;;;;;;;;;5013032;28;20034;-62
2024/02/15 02:24:11;;;;;;;32.35;25.17;;;;;;;;;;5008825;28;20034;-62
2024/02/15 02:26:37;;;;;;;36.80;26.13;;;;;;;;;;4995459;28;20030;-62
2024/02/15 02:29:04;;;;;;;33.15;24.73;;;;;;;;;;5009811;28;20040;-62
2024/02/15 02:31:33;;;;;;;34.97;25.98;;;;;;;;;;5000317;28;20057;-62
2024/02/15 02:33:59;;;;;;;38.80;27.73;;;;;;;;;;5009151;28;20663;-62
2024/02/15 02:36:26;;;;;;;39.90;25.27;;;;;;;;;;5009639;28;20041;-61
2024/02/15 02:38:52;;;;;;;37.28;26.45;;;;;;;;;;5011494;28;20026;-62
2024/02/15 02:41:23;;;;;;;36.28;25.85;;;;;;;;;;5009694;28;20095;-61
2024/02/15 02:43:49;;;;;;;36.38;26.20;;;;;;;;;;5007061;28;20056;-62
2024/02/15 02:46:15;;;;;;;34.83;24.83;;;;;;;;;;5004407;28;20030;-61
2024/02/15 02:48:41;;;;;;;36.70;25.67;;;;;;;;;;5005083;28;20030;-61
2024/02/15 02:51:08;;;;;;;40.92;26.25;;;;;;;;;;5003444;28;20027;-61
2024/02/15 02:53:34;;;;;;;40.53;26.75;;;;;;;;;;5003717;28;20032;-61
2024/02/15 02:56:00;;;;;;;37.72;27.02;;;;;;;;;;5010918;28;20028;-62
2024/02/15 02:58:26;;;;;;;35.25;25.48;;;;;;;;;;5006630;28;20037;-62
2024/02/15 03:00:52;;;;;;;37.05;26.42;;;;;;;;;;4997256;28;20031;-61
2024/02/15 03:03:19;;;;;;;33.33;25.73;;;;;;;;;;5018233;28;20052;-62
2024/02/15 03:05:45;;;;;;;37.83;26.48;;;;;;;;;;5010214;28;20049;-61
2024/02/15 03:08:14;;;;;;;37.10;26.38;;;;;;;;;;5008749;28;20390;-62
2024/02/15 03:10:40;;;;;;;36.95;26.45;;;;;;;;;;5012046;28;20033;-62
2024/02/15 03:13:09;;;;;;;42.08;27.85;;;;;;;;;;5002859;28;20026;-62
2024/02/15 03:15:35;;;;;;;37.88;27.08;;;;;;;;;;5009081;28;20480;-62
2024/02/15 03:18:06;;;;;;;37.60;26.23;;;;;;;;;;5002807;28;20062;-62
2024/02/15 03:20:33;;;;;;;37.03;27.60;;;;;;;;;;5010422;28;20124;-61
2024/02/15 03:23:00;;;;;;;35.05;26.13;;;;;;;;;;5008376;28;20531;-62
2024/02/15 03:25:26;;;;;;;33.90;26.67;;;;;;;;;;4995183;28;20042;-62
2024/02/15 03:27:56;;;;;;;35.83;25.50;;;;;;;;;;5007691;28;20026;-63
2024/02/15 03:30:23;;;;;;;37.70;26.77;;;;;;;;;;5011822;28;20030;-62
2024/02/15 03:32:52;;;;;;;34.03;26.98;;;;;;;;;;5011165;28;20136;-63
2024/02/15 03:35:19;;;;;;;38.70;26.70;;;;;;;;;;5010262;28;20018;-62
2024/02/15 03:37:45;;;;;;;37.60;28.02;;;;;;;;;;5006595;28;20048;-62
2024/02/15 03:40:11;;;;;;;40.08;28.58;;;;;;;;;;5011430;28;20026;-62
2024/02/15 03:42:37;;;;;;;37.22;28.70;;;;;;;;;;4993128;28;20034;-63
2024/02/15 03:45:08;;;;;;;36.20;27.40;;;;;;;;;;4992230;28;20058;-62
2024/02/15 03:47:35;;;;;;;39.13;29.17;;;;;;;;;;5005579;28;20018;-62
2024/02/15 03:50:01;;;;;;;37.42;28.70;;;;;;;;;;5009442;28;20026;-62
2024/02/15 03:52:27;;;;;;;38.90;28.77;;;;;;;;;;5010989;28;20030;-62
2024/02/15 03:54:53;;;;;;;41.40;30.92;;;;;;;;;;5010140;28;20032;-62
2024/02/15 03:57:20;;;;;;;39.25;29.00;;;;;;;;;;5010396;28;20105;-62
2024/02/15 03:59:50;;;;;;;36.70;29.90;;;;;;;;;;4996924;28;20030;-62
2024/02/15 04:02:16;;;;;;;40.97;30.48;;;;;;;;;;4993675;28;20381;-62
2024/02/15 04:04:43;;;;;;;38.47;29.98;;;;;;;;;;5011482;28;20373;-62
2024/02/15 04:07:11;;;;;;;39.08;27.80;;;;;;;;;;5011307;28;20022;-62
2024/02/15 04:09:37;;;;;;;39.30;29.13;;;;;;;;;;4999770;28;20064;-62
2024/02/15 04:12:03;;;;;;;39.88;28.23;;;;;;;;;;4992323;28;20384;-62
2024/02/15 04:14:29;;;;;;;39.75;28.33;;;;;;;;;;5009636;28;20362;-62
2024/02/15 04:16:57;;;;;;;37.35;27.65;;;;;;;;;;5001487;28;20041;-62
2024/02/15 04:19:23;;;;;;;36.22;27.15;;;;;;;;;;5010565;28;20041;-62
2024/02/15 04:21:50;;;;;;;39.10;29.77;;;;;;;;;;5008241;28;20060;-61
2024/02/15 04:24:17;;;;;;;38.22;28.80;;;;;;;;;;5005559;28;20049;-61
2024/02/15 04:26:43;;;;;;;40.15;28.05;;;;;;;;;;5010880;28;20337;-62
2024/02/15 04:29:10;;;;;;;40.08;27.42;;;;;;;;;;5008941;28;20034;-63
2024/02/15 04:31:38;;;;;;;34.63;27.90;;;;;;;;;;5014364;28;20484;-62
2024/02/15 04:34:04;;;;;;;38.53;27.08;;;;;;;;;;5015165;28;20025;-61
2024/02/15 04:36:33;;;;;;;39.22;29.13;;;;;;;;;;5012265;28;20026;-61
2024/02/15 04:39:02;;;;;;;36.25;28.55;;;;;;;;;;5014488;28;20488;-61
2024/02/15 04:41:29;;;;;;;41.05;29.95;;;;;;;;;;5000606;28;20073;-61
2024/02/15 04:43:55;;;;;;;39.83;29.05;;;;;;;;;;4995326;28;20479;-61
2024/02/15 04:46:21;;;;;;;37.38;28.25;;;;;;;;;;5010702;28;20097;-61
2024/02/15 04:48:49;;;;;;;40.03;28.45;;;;;;;;;;5010002;28;20031;-61
2024/02/15 04:51:15;;;;;;;39.53;29.33;;;;;;;;;;4999554;28;20104;-61
2024/02/15 04:53:41;;;;;;;38.20;28.17;;;;;;;;;;5010423;28;20153;-61
2024/02/15 04:56:13;;;;;;;40.30;29.15;;;;;;;;;;5015437;28;20105;-61
2024/02/15 04:58:45;;;;;;;36.63;27.73;;;;;;;;;;5011576;28;20018;-61
2024/02/15 05:01:12;;;;;;;38.60;28.85;;;;;;;;;;5010530;28;20072;-61
2024/02/15 05:03:37;;;;;;;39.05;27.90;;;;;;;;;;5009902;28;20018;-61
2024/02/15 05:06:04;;;;;;;38.13;27.90;;;;;;;;;;5013475;28;20683;-62
2024/02/15 05:08:31;;;;;;;35.22;27.30;;;;;;;;;;5011113;28;20084;-62
2024/02/15 05:10:58;;;;;;;36.90;27.23;;;;;;;;;;5014056;28;20017;-62
2024/02/15 05:13:27;;;;;;;37.55;27.95;;;;;;;;;;5011447;28;20028;-62
2024/02/15 05:15:53;;;;;;;35.13;27.77;;;;;;;;;;4994749;28;20025;-61
2024/02/15 05:18:19;;;;;;;40.33;27.67;;;;;;;;;;5003360;28;20030;-62
2024/02/15 05:20:45;;;;;;;37.35;27.27;;;;;;;;;;5013589;28;20110;-62
2024/02/15 05:23:12;;;;;;;38.83;26.90;;;;;;;;;;4997844;28;20038;-62
2024/02/15 05:25:38;;;;;;;38.55;26.63;;;;;;;;;;4994800;28;20133;-62
2024/02/15 05:28:06;;;;;;;39.58;27.35;;;;;;;;;;4997166;28;20469;-62
2024/02/15 05:30:32;;;;;;;40.10;28.00;;;;;;;;;;5006139;28;20030;-62
2024/02/15 05:32:58;;;;;;;43.35;30.13;;;;;;;;;;5013390;28;20119;-62
2024/02/15 05:35:26;;;;;;;43.80;30.20;;;;;;;;;;5023948;28;20026;-63
2024/02/15 05:37:52;;;;;;;46.42;30.40;;;;;;;;;;5001041;28;20014;-62
2024/02/15 05:40:19;;;;;;;43.05;30.65;;;;;;;;;;5005759;28;20388;-62
2024/02/15 05:42:46;;;;;;;40.70;29.65;;;;;;;;;;5012442;28;20026;-62
2024/02/15 05:45:26;;;;;;;41.33;30.38;;;;;;;;;;5013693;28;20480;-62
2024/02/15 05:47:53;;;;;;;40.08;30.10;;;;;;;;;;5001347;28;20541;-62
2024/02/15 05:50:20;;;;;;;42.10;30.75;;;;;;;;;;4999889;28;20062;-62
2024/02/15 05:52:47;;;;;;;39.50;28.58;;;;;;;;;;4994316;28;20045;-62
2024/02/15 05:55:16;;;;;;;42.15;29.77;;;;;;;;;;5013174;28;20072;-62
2024/02/15 05:57:43;;;;;;;40.63;29.83;;;;;;;;;;5001376;28;20042;-62
2024/02/15 06:00:09;;;;;;;41.20;29.77;;;;;;;;;;5012702;28;20037;-62
2024/02/15 06:02:35;;;;;;;38.20;29.08;;;;;;;;;;5011735;28;20105;-62
2024/02/15 06:05:04;;;;;;;40.97;29.67;;;;;;;;;;5009139;28;20132;-62
2024/02/15 06:07:31;;;;;;;40.53;30.08;;;;;;;;;;5015122;28;20030;-62
2024/02/15 06:09:57;;;;;;;42.90;30.23;;;;;;;;;;5005233;28;20026;-64
2024/02/15 06:12:23;;;;;;;39.13;28.25;;;;;;;;;;5012177;28;20436;-64
2024/02/15 06:14:49;;;;;;;39.95;28.50;;;;;;;;;;5012155;28;20036;-62
2024/02/15 06:17:15;;;;;;;38.15;27.92;;;;;;;;;;4997688;28;20037;-62
2024/02/15 06:19:41;;;;;;;44.80;30.20;;;;;;;;;;5003065;28;20120;-62
2024/02/15 06:22:08;;;;;;;41.03;29.08;;;;;;;;;;5012837;28;20495;-62
2024/02/15 06:24:34;;;;;;;44.58;29.50;;;;;;;;;;5012791;28;20093;-62
2024/02/15 06:27:01;;;;;;;41.40;30.35;;;;;;;;;;5012189;28;20365;-62
2024/02/15 06:40:25;;;;;;;41.38;27.75;;;;;;;;;;4998930;28;20541;-61
2024/02/15 06:42:51;;;;;;;40.28;27.90;;;;;;;;;;5005094;28;20500;-62
2024/02/15 06:45:20;;;;;;;38.50;28.35;;;;;;;;;;5000441;28;20125;-62
2024/02/15 06:47:46;;;;;;;37.58;28.35;;;;;;;;;;4999078;28;20053;-61
2024/02/15 06:50:13;;;;;;;41.22;27.92;;;;;;;;;;4996833;28;20030;-62
2024/02/15 06:52:39;;;;;;;33.53;25.67;;;;;;;;;;4992567;28;20053;-62
2024/02/15 06:55:08;;;;;;;38.80;26.40;;;;;;;;;;5005118;28;20124;-61
2024/02/15 06:57:40;;;;;;;36.25;26.63;;;;;;;;;;5010783;28;20026;-62
2024/02/15 07:00:09;;;;;;;39.08;27.20;;;;;;;;;;5010382;28;20026;-62
2024/02/15 07:02:35;;;;;;;37.58;27.30;;;;;;;;;;5001264;28;20073;-62
2024/02/15 07:05:02;;;;;;;40.75;28.42;;;;;;;;;;5002974;28;20041;-62
2024/02/15 07:07:28;;;;;;;38.47;27.58;;;;;;;;;;5011600;28;20032;-61
2024/02/15 07:09:54;;;;;;;39.35;26.75;;;;;;;;;;5012540;28;20022;-61
2024/02/15 07:12:21;;;;;;;41.05;26.77;;;;;;;;;;5006969;28;20480;-61
2024/02/15 07:14:47;;;;;;;36.00;27.45;;;;;;;;;;5026040;28;20459;-62
2024/02/15 07:17:13;;;;;;;38.95;27.73;;;;;;;;;;5010645;28;20480;-61
2024/02/15 07:19:49;;;;;;;41.63;28.10;;;;;;;;;;4994471;28;20073;-61
2024/02/15 07:22:15;;;;;;;37.55;24.83;;;;;;;;;;4997803;28;20037;-62
2024/02/15 07:24:41;;;;;;;38.08;28.40;;;;;;;;;;5021503;28;20037;-62
2024/02/15 07:27:07;;;;;;;42.78;28.27;;;;;;;;;;5012093;28;20029;-61
2024/02/15 07:29:33;;;;;;;40.22;26.88;;;;;;;;;;5012416;28;20025;-62
2024/02/15 07:32:04;;;;;;;36.85;27.23;;;;;;;;;;5011584;28;20050;-61
2024/02/15 07:34:31;;;;;;;41.67;28.27;;;;;;;;;;5012454;28;20048;-61
2024/02/15 07:36:57;;;;;;;43.30;27.75;;;;;;;;;;5012250;28;20026;-62
2024/02/15 07:39:24;;;;;;;40.20;27.35;;;;;;;;;;5010404;28;20109;-62
2024/02/15 07:41:51;;;;;;;40.35;28.33;;;;;;;;;;5011243;28;20098;-62
2024/02/15 07:44:17;;;;;;;40.35;27.02;;;;;;;;;;5010757;28;20049;-61
2024/02/15 07:46:44;;;;;;;38.85;29.08;;;;;;;;;;5012156;28;20314;-61
2024/02/15 07:49:10;;;;;;;42.22;28.92;;;;;;;;;;5011620;28;20452;-62
2024/02/15 07:51:36;;;;;;;37.90;28.50;;;;;;;;;;5011458;28;20042;-61
2024/02/15 07:54:02;;;;;;;39.80;27.85;;;;;;;;;;5015206;28;20075;-62
2024/02/15 07:56:28;;;;;;;41.78;27.90;;;;;;;;;;5005261;28;20022;-62
2024/02/15 07:58:54;;;;;;;37.78;26.25;;;;;;;;;;5001919;28;20022;-62
2024/02/15 08:01:23;;;;;;;41.33;28.17;;;;;;;;;;5013851;28;20032;-62
2024/02/15 08:03:49;;;;;;;41.20;27.63;;;;;;;;;;5013978;28;20511;-62
2024/02/15 08:06:16;;;;;;;46.05;29.60;;;;;;;;;;5011438;28;20412;-62
2024/02/15 08:08:45;;;;;;;41.35;27.60;;;;;;;;;;5008623;28;20111;-63
2024/02/15 08:11:14;;;;;;;44.42;29.52;;;;;;;;;;5021591;28;20031;-62
2024/02/15 08:13:53;;;;;;;47.85;31.30;;;;;;;;;;5011845;28;20396;-62
2024/02/15 08:16:22;;;;;;;43.30;29.45;;;;;;;;;;4999793;28;20052;-62
2024/02/15 08:18:51;;;;;;;47.95;31.35;;;;;;;;;;4998221;28;20102;-62
2024/02/15 08:21:18;;;;;;;43.63;29.67;;;;;;;;;;5004376;28;20034;-52
2024/02/15 08:23:44;;;;;;;42.22;29.63;;;;;;;;;;5019193;28;20026;-54
2024/02/15 08:26:10;;;;;;;44.22;30.20;;;;;;;;;;5003366;28;20400;-63
2024/02/15 08:28:37;;;;;;;47.88;31.15;;;;;;;;;;5014873;28;20415;-61
2024/02/15 08:31:03;;;;;;;42.95;30.73;;;;;;;;;;5014236;28;20388;-64
2024/02/15 08:33:30;;;;;;;45.58;31.42;;;;;;;;;;5002750;28;20428;-81
2024/02/15 08:35:56;;;;;;;40.58;30.88;;;;;;;;;;5013477;28;20040;-69
2024/02/15 08:38:22;;;;;;;46.35;31.15;;;;;;;;;;5014170;28;20029;-63
2024/02/15 08:40:48;;;;;;;48.40;31.00;;;;;;;;;;5007675;28;20384;-67
2024/02/15 08:43:15;;;;;;;44.58;32.03;;;;;;;;;;5002883;28;20037;-64
2024/02/15 08:45:41;;;;;;;45.10;32.80;;;;;;;;;;5023063;28;20042;-66
2024/02/15 08:48:08;;;;;;;42.22;30.88;;;;;;;;;;5009550;28;20105;-69
2024/02/15 08:50:34;;;;;;;43.13;31.20;;;;;;;;;;5016316;28;20031;-68
2024/02/15 08:53:01;;;;;;;45.33;33.25;;;;;;;;;;5010187;28;20026;-68
2024/02/15 08:55:27;;;;;;;46.53;33.75;;;;;;;;;;5001113;28;20113;-65
2024/02/15 08:57:54;;;;;;;45.95;32.58;;;;;;;;;;5015686;28;20598;-58
2024/02/15 09:00:20;;;;;;;44.47;32.38;;;;;;;;;;5010329;28;20176;-53
2024/02/15 09:02:46;;;;;;;49.45;33.47;;;;;;;;;;5017849;28;20080;-61
2024/02/15 09:05:17;;;;;;;50.88;33.55;;;;;;;;;;5011872;28;20042;-64
2024/02/15 09:07:43;;;;;;;46.17;33.30;;;;;;;;;;5007307;28;20379;-65
2024/02/15 09:10:10;;;;;;;45.67;32.67;;;;;;;;;;4997364;28;20489;-73
2024/02/15 09:12:39;;;;;;;48.35;32.65;;;;;;;;;;5004837;28;20579;-70
2024/02/15 09:15:05;;;;;;;47.63;31.90;;;;;;;;;;5005611;28;20113;-67
2024/02/15 09:17:32;;;;;;;45.28;32.40;;;;;;;;;;5014181;28;20391;-68
2024/02/15 09:19:58;;;;;;;45.60;31.40;;;;;;;;;;5013824;28;20033;-69
2024/02/15 09:22:24;;;;;;;42.83;32.00;;;;;;;;;;5006358;28;20501;-73
2024/02/15 09:24:50;;;;;;;42.42;32.30;;;;;;;;;;5003122;28;20377;-60
2024/02/15 09:27:16;;;;;;;46.38;31.80;;;;;;;;;;5007386;28;20079;-55
2024/02/15 09:29:42;;;;;;;44.53;31.42;;;;;;;;;;5001848;28;20388;-55
2024/02/15 09:32:08;;;;;;;49.92;32.30;;;;;;;;;;5010386;28;20046;-50
2024/02/15 09:34:34;;;;;;;46.30;32.33;;;;;;;;;;5008612;28;20033;-68
2024/02/15 09:37:00;;;;;;;49.80;32.60;;;;;;;;;;5000378;28;20472;-70
2024/02/15 09:39:26;;;;;;;51.13;34.42;;;;;;;;;;5013212;28;20042;-53
2024/02/15 09:41:58;;;;;;;46.35;32.70;;;;;;;;;;5005626;28;20032;-65
2024/02/15 09:44:27;;;;;;;47.22;33.20;;;;;;;;;;5009647;28;20065;-61
2024/02/15 09:47:03;;;;;;;45.25;32.03;;;;;;;;;;5008835;28;20021;-68
2024/02/15 09:49:29;;;;;;;45.53;34.13;;;;;;;;;;5007922;28;20023;-65
2024/02/15 09:51:56;;;;;;;48.40;34.20;;;;;;;;;;5030237;28;20475;-65
2024/02/15 09:54:22;;;;;;;42.58;32.83;;;;;;;;;;5006926;28;20484;-64
2024/02/15 09:56:51;;;;;;;42.42;32.75;;;;;;;;;;5006712;28;20022;-61
2024/02/15 09:59:18;;;;;;;47.75;34.72;;;;;;;;;;5004435;28;20037;-58
2024/02/15 10:01:46;;;;;;;46.50;34.20;;;;;;;;;;5009799;28;20443;-64
2024/02/15 10:04:15;;;;;;;44.47;33.40;;;;;;;;;;5002922;28;20029;-64
2024/02/15 10:06:41;;;;;;;45.60;35.58;;;;;;;;;;4996115;28;20494;-62
2024/02/15 10:09:27;;;;;;;45.90;33.75;;;;;;;;;;5014865;28;20426;-66
2024/02/15 10:11:57;;;;;;;45.53;34.92;;;;;;;;;;5009608;28;20094;-60
2024/02/15 10:14:24;;;;;;;48.90;35.70;;;;;;;;;;5013443;28;20028;-57
2024/02/15 10:16:50;;;;;;;45.22;34.70;;;;;;;;;;5010465;28;20029;-65
2024/02/15 10:19:17;;;;;;;47.85;35.50;;;;;;;;;;5007235;28;20038;-57
2024/02/15 10:21:43;;;;;;;46.08;34.75;;;;;;;;;;4998967;28;20104;-68
2024/02/15 10:24:09;;;;;;;47.03;35.75;;;;;;;;;;5009137;28;20121;-60
2024/02/15 10:26:36;;;;;;;44.83;33.97;;;;;;;;;;5009582;28;20100;-66
2024/02/15 10:29:08;;;;;;;45.17;34.50;;;;;;;;;;5006855;28;20137;-68
2024/02/15 10:31:35;;;;;;;51.10;35.92;;;;;;;;;;5001361;28;20470;-64
2024/02/15 10:34:03;;;;;;;48.28;34.90;;;;;;;;;;4999719;28;20416;-60
2024/02/15 10:36:32;;;;;;;45.50;35.50;;;;;;;;;;5010886;28;20025;-61
2024/02/15 10:39:16;;;;;;;50.17;37.03;;;;;;;;;;5005623;28;20034;-61
2024/02/15 10:41:43;;;;;;;48.53;35.15;;;;;;;;;;5009745;28;20022;-69
2024/02/15 10:44:09;;;;;;;50.25;35.60;;;;;;;;;;5009629;28;20109;-66
2024/02/15 10:46:36;;;;;;;57.13;37.75;;;;;;;;;;5013178;28;20026;-68
2024/02/15 10:49:02;;;;;;;51.78;37.08;;;;;;;;;;5021559;28;20049;-65
2024/02/15 10:51:28;;;;;;;50.03;35.53;;;;;;;;;;5008225;28;20516;-67
2024/02/15 10:53:59;;;;;;;54.20;37.72;;;;;;;;;;5001104;28;20034;-66
2024/02/15 10:56:29;;;;;;;46.08;35.22;;;;;;;;;;5005943;28;20026;-64
2024/02/15 10:59:13;;;;;;;52.75;36.67;;;;;;;;;;5009683;28;20563;-67
2024/02/15 11:01:40;;;;;;;51.63;37.08;;;;;;;;;;5008666;28;20026;-72
2024/02/15 11:04:08;;;;;;;50.35;36.45;;;;;;;;;;5011263;28;20061;-56
2024/02/15 11:06:36;;;;;;;46.13;36.75;;;;;;;;;;5013142;28;20379;-59
2024/02/15 11:09:02;;;;;;;50.85;38.38;;;;;;;;;;5015366;28;20060;-53
2024/02/15 11:11:30;;;;;;;47.28;36.50;;;;;;;;;;5010126;28;20183;-50
2024/02/15 11:14:15;;;;;;;47.17;37.08;;;;;;;;;;5008803;28;20044;-50
2024/02/15 11:16:44;;;;;;;48.97;38.33;;;;;;;;;;5004271;28;20037;-57
2024/02/15 11:19:10;;;;;;;48.70;37.70;;;;;;;;;;5010437;28;20032;-56
2024/02/15 11:21:56;;;;;;;50.85;37.13;;;;;;;;;;5008193;28;20096;-52
2024/02/15 11:24:29;;;;;;;58.35;43.08;;;;;;;;;;5034757;28;20833;-50
2024/02/15 11:26:58;;;;;;;48.00;38.38;;;;;;;;;;4998776;28;20042;-54
2024/02/15 11:29:43;;;;;;;51.38;38.42;;;;;;;;;;5004345;28;20030;-62
2024/02/15 11:32:09;;;;;;;50.58;36.88;;;;;;;;;;5012256;28;20045;-63
2024/02/15 11:34:48;;;;;;;49.13;37.47;;;;;;;;;;4999901;28;20109;-51
2024/02/15 11:37:46;;;;;;;51.22;37.50;;;;;;;;;;5002807;28;20037;-54
2024/02/15 11:40:12;;;;;;;49.78;38.30;;;;;;;;;;5004265;28;20042;-51
2024/02/15 11:42:39;;;;;;;50.13;38.60;;;;;;;;;;5008763;28;20033;-48
2024/02/15 11:45:07;;;;;;;49.22;38.05;;;;;;;;;;4991644;28;20038;-49
2024/02/15 11:47:37;;;;;;;48.72;37.50;;;;;;;;;;4991864;28;20105;-49
2024/02/15 11:50:03;;;;;;;54.78;40.63;;;;;;;;;;4992075;28;20023;-50
2024/02/15 11:52:29;;;;;;;48.92;39.50;;;;;;;;;;4992144;28;20499;-53
2024/02/15 11:55:04;;;;;;;49.17;40.70;;;;;;;;;;4992100;28;20176;-55
2024/02/15 11:57:39;;;;;;;50.53;38.35;;;;;;;;;;4993089;28;20050;-48
2024/02/15 12:19:55;;;;;;;50.17;38.38;;;;;;;;;;4992320;28;20173;-48
2024/02/15 12:22:29;;;;;;;50.85;40.72;;;;;;;;;;4992199;28;20041;-54
2024/02/15 12:24:55;;;;;;;54.43;39.80;;;;;;;;;;4992165;28;20093;-49
2024/02/15 12:27:21;;;;;;;50.67;39.40;;;;;;;;;;5006987;28;20074;-48
2024/02/15 12:29:57;;;;;;;51.50;39.33;;;;;;;;;;4992271;28;20054;-56
2024/02/15 12:32:24;;;;;;;56.03;39.47;;;;;;;;;;4991631;28;20189;-52
2024/02/15 12:34:54;;;;;;;54.60;40.97;;;;;;;;;;4991974;28;20110;-54
2024/02/15 12:37:23;;;;;;;54.20;39.80;;;;;;;;;;5006668;28;20126;-49
2024/02/15 12:39:50;;;;;;;49.35;38.17;;;;;;;;;;4991642;28;20118;-49
2024/02/15 12:42:17;;;;;;;55.35;40.47;;;;;;;;;;4991757;28;20022;-50
2024/02/15 12:44:49;;;;;;;50.50;38.45;;;;;;;;;;4993003;28;20046;-50
2024/02/15 12:47:22;;;;;;;51.47;40.85;;;;;;;;;;4995329;28;20034;-51
2024/02/15 12:49:50;;;;;;;52.65;41.28;;;;;;;;;;5010028;28;20507;-49
2024/02/15 12:52:35;;;;;;;54.33;41.38;;;;;;;;;;4995163;28;20026;-49
2024/02/15 12:55:19;;;;;;;52.58;40.67;;;;;;;;;;4995256;28;20033;-49
2024/02/15 12:57:48;;;;;;;51.33;39.65;;;;;;;;;;5010237;28;20023;-49
2024/02/15 13:00:17;;;;;;;57.63;42.55;;;;;;;;;;4995249;28;20018;-50
2024/02/15 13:02:44;;;;;;;60.15;40.85;;;;;;;;;;4995195;28;20018;-53
2024/02/15 13:05:11;;;;;;;50.97;40.83;;;;;;;;;;5016995;28;20188;-48
2024/02/15 13:07:38;;;;;;;61.42;41.58;;;;;;;;;;5014713;28;20040;-54
2024/02/15 13:10:06;;;;;;;53.20;40.47;;;;;;;;;;5014640;28;20328;-48
2024/02/15 13:12:34;;;;;;;52.30;39.08;;;;;;;;;;5012917;28;20057;-50
2024/02/15 13:15:02;;;;;;;51.42;39.65;;;;;;;;;;5014233;28;20056;-48
2024/02/15 13:17:28;;;;;;;52.45;39.50;;;;;;;;;;5013078;28;20109;-49
2024/02/15 13:20:02;;;;;;;51.33;41.08;;;;;;;;;;5014368;28;20048;-49
2024/02/15 13:22:28;;;;;;;49.95;39.55;;;;;;;;;;5013480;28;20476;-49
2024/02/15 13:24:55;;;;;;;49.50;37.78;;;;;;;;;;5014373;28;20033;-50
2024/02/15 13:27:23;;;;;;;51.88;39.97;;;;;;;;;;5029290;28;20484;-48
2024/02/15 13:29:50;;;;;;;49.20;39.50;;;;;;;;;;5011441;28;20104;-52
2024/02/15 13:32:20;;;;;;;55.85;36.55;;;;;;;;;;5012481;28;20113;-52
2024/02/15 13:34:46;;;;;;;50.72;37.45;;;;;;;;;;5006074;28;20995;-49
2024/02/15 13:37:17;;;;;;;50.22;37.55;;;;;;;;;;4994402;28;20022;-76
2024/02/15 13:39:45;;;;;;;48.97;38.50;;;;;;;;;;4994583;28;20042;-69
2024/02/15 13:42:11;;;;;;;51.53;39.15;;;;;;;;;;4994896;28;20018;-65
2024/02/15 13:44:37;;;;;;;50.55;38.42;;;;;;;;;;5004403;28;20042;-66
2024/02/15 13:47:05;;;;;;;51.92;38.92;;;;;;;;;;5007311;28;20022;-67
2024/02/15 13:49:43;;;;;;;49.80;39.35;;;;;;;;;;5008541;28;20049;-73
2024/02/15 13:52:22;;;;;;;52.58;38.53;;;;;;;;;;5000260;28;20030;-60
2024/02/15 13:54:48;;;;;;;48.75;37.88;;;;;;;;;;5002968;28;20031;-61
2024/02/15 13:57:17;;;;;;;49.10;37.33;;;;;;;;;;5003559;28;20026;-50
2024/02/15 13:59:43;;;;;;;48.63;36.20;;;;;;;;;;5012001;28;20046;-52
2024/02/15 14:02:09;;;;;;;49.50;36.17;;;;;;;;;;5007594;28;20482;-65
2024/02/15 14:04:35;;;;;;;48.72;37.53;;;;;;;;;;5020520;28;20053;-64
2024/02/15 14:07:01;;;;;;;50.00;34.90;;;;;;;;;;5001313;28;20469;-63
2024/02/15 14:09:27;;;;;;;52.40;36.58;;;;;;;;;;5000072;28;20049;-62
2024/02/15 14:11:54;;;;;;;52.60;36.75;;;;;;;;;;5004414;28;20030;-60
2024/02/15 14:14:20;;;;;;;50.30;37.35;;;;;;;;;;5006105;28;20030;-59
2024/02/15 14:16:46;;;;;;;48.03;34.03;;;;;;;;;;5003930;28;20040;-60
2024/02/15 14:19:12;;;;;;;52.70;35.28;;;;;;;;;;5000201;28;20071;-60
2024/02/15 14:21:40;;;;;;;51.75;36.97;;;;;;;;;;5025940;28;20100;-60
2024/02/15 14:24:08;;;;;;;47.97;34.08;;;;;;;;;;5005270;28;20471;-63
2024/02/15 14:26:34;;;;;;;44.63;34.35;;;;;;;;;;5019290;28;20479;-62
2024/02/15 14:29:03;;;;;;;50.22;35.95;;;;;;;;;;5016187;28;20029;-65
2024/02/15 14:34:13;;;;;;;50.67;34.30;;;;;;;;;;5003315;28;20125;-50
2024/02/15 14:36:39;;;;;;;47.65;35.20;;;;;;;;;;5007728;28;20487;-61
2024/02/15 14:39:05;;;;;;;49.08;35.15;;;;;;;;;;5009858;28;20030;-59
2024/02/15 14:41:31;;;;;;;50.20;35.35;;;;;;;;;;5010554;28;20030;-60
2024/02/15 14:43:57;;;;;;;51.10;34.58;;;;;;;;;;5003111;28;20515;-59
2024/02/15 14:46:24;;;;;;;52.80;37.05;;;;;;;;;;5007671;28;20026;-66
2024/02/15 14:48:50;;;;;;;49.10;35.55;;;;;;;;;;5002349;28;20163;-60
2024/02/15 14:51:19;;;;;;;53.25;34.63;;;;;;;;;;5007236;28;20104;-52
2024/02/15 14:53:45;;;;;;;50.22;35.78;;;;;;;;;;5006666;28;20476;-53